sensor_id;sensor_type;location;lat;lon;timestamp;pressure;altitude;pressure_sealevel;temperature;humidity
58955;BME280;45815;52.334;5.024;2023-02-24T00:01:36;101667.81;;;3.99;100.00
58955;BME280;45815;52.334;5.024;2023-02-24T00:04:04;101664.41;;;4.00;100.00
58955;BME280;45815;52.334;5.024;2023-02-24T00:06:33;101662.59;;;3.99;100.00
58955;BME280;45815;52.334;5.024;2023-02-24T00:09:05;101652.84;;;3.95;100.00
58955;BME280;45815;52.334;5.024;2023-02-24T00:11:35;101655.44;;;3.95;100.00
58955;BME280;45815;52.334;5.024;2023-02-24T00:14:06;101642.00;;;3.88;100.00
58955;BME280;45815;52.334;5.024;2023-02-24T00:16:33;101640.22;;;3.87;100.00
58955;BME280;45815;52.334;5.024;2023-02-24T00:18:59;101642.91;;;3.88;100.00
58955;BME280;45815;52.334;5.024;2023-02-24T00:21:26;101645.41;;;3.87;100.00
58955;BME280;45815;52.334;5.024;2023-02-24T00:23:53;101636.63;;;3.85;100.00
58955;BME280;45815;52.334;5.024;2023-02-24T00:26:19;101639.13;;;3.83;100.00
58955;BME280;45815;52.334;5.024;2023-02-24T00:28:45;101615.16;;;3.72;100.00
58955;BME280;45815;52.334;5.024;2023-02-24T00:31:14;101626.78;;;3.79;100.00
58955;BME280;45815;52.334;5.024;2023-02-24T00:33:44;101627.69;;;3.79;100.00
58955;BME280;45815;52.334;5.024;2023-02-24T00:36:15;101625.72;;;3.75;100.00
58955;BME280;45815;52.334;5.024;2023-02-24T00:38:42;101628.19;;;3.59;100.00
58955;BME280;45815;52.334;5.024;2023-02-24T00:41:13;101612.28;;;3.68;100.00
58955;BME280;45815;52.334;5.024;2023-02-24T00:43:40;101619.53;;;3.73;100.00
58955;BME280;45815;52.334;5.024;2023-02-24T00:46:13;101612.47;;;3.71;100.00
58955;BME280;45815;52.334;5.024;2023-02-24T00:48:39;101605.19;;;3.65;100.00
58955;BME280;45815;52.334;5.024;2023-02-24T00:51:09;101591.31;;;3.50;100.00
58955;BME280;45815;52.334;5.024;2023-02-24T00:53:36;101595.19;;;3.56;100.00
58955;BME280;45815;52.334;5.024;2023-02-24T00:56:04;101596.78;;;3.54;100.00
58955;BME280;45815;52.334;5.024;2023-02-24T00:58:34;101589.72;;;3.52;100.00
58955;BME280;45815;52.334;5.024;2023-02-24T01:01:00;101584.50;;;3.52;100.00
58955;BME280;45815;52.334;5.024;2023-02-24T01:03:26;101580.94;;;3.50;100.00
58955;BME280;45815;52.334;5.024;2023-02-24T01:05:52;101583.69;;;3.53;100.00
58955;BME280;45815;52.334;5.024;2023-02-24T01:08:18;101570.00;;;3.55;100.00
58955;BME280;45815;52.334;5.024;2023-02-24T01:10:59;101573.41;;;3.54;100.00
58955;BME280;45815;52.334;5.024;2023-02-24T01:13:44;101551.50;;;3.49;100.00
58955;BME280;45815;52.334;5.024;2023-02-24T01:16:11;101553.91;;;3.61;100.00
58955;BME280;45815;52.334;5.024;2023-02-24T01:18:45;101537.44;;;3.61;100.00
58955;BME280;45815;52.334;5.024;2023-02-24T01:21:13;101547.28;;;3.66;100.00
58955;BME280;45815;52.334;5.024;2023-02-24T01:23:40;101520.94;;;3.60;100.00
58955;BME280;45815;52.334;5.024;2023-02-24T01:26:07;101529.22;;;3.68;100.00
58955;BME280;45815;52.334;5.024;2023-02-24T01:28:32;101528.28;;;3.67;100.00
58955;BME280;45815;52.334;5.024;2023-02-24T01:31:00;101520.59;;;3.69;100.00
58955;BME280;45815;52.334;5.024;2023-02-24T01:33:27;101497.44;;;3.57;100.00
58955;BME280;45815;52.334;5.024;2023-02-24T01:35:54;101510.06;;;3.66;100.00
58955;BME280;45815;52.334;5.024;2023-02-24T01:38:20;101488.56;;;3.53;100.00
58955;BME280;45815;52.334;5.024;2023-02-24T01:40:57;101500.19;;;3.60;100.00
58955;BME280;45815;52.334;5.024;2023-02-24T01:43:23;101487.31;;;3.62;100.00
58955;BME280;45815;52.334;5.024;2023-02-24T01:45:49;101491.94;;;3.67;100.00
58955;BME280;45815;52.334;5.024;2023-02-24T01:48:18;101477.75;;;3.61;100.00
58955;BME280;45815;52.334;5.024;2023-02-24T01:50:44;101480.50;;;3.64;100.00
58955;BME280;45815;52.334;5.024;2023-02-24T01:53:10;101485.53;;;3.61;100.00
58955;BME280;45815;52.334;5.024;2023-02-24T01:55:42;101488.75;;;3.56;100.00
58955;BME280;45815;52.334;5.024;2023-02-24T01:58:18;101478.16;;;3.53;100.00
58955;BME280;45815;52.334;5.024;2023-02-24T02:00:45;101482.41;;;3.51;100.00
58955;BME280;45815;52.334;5.024;2023-02-24T02:03:29;101470.06;;;3.47;100.00
58955;BME280;45815;52.334;5.024;2023-02-24T02:06:03;101459.84;;;3.50;100.00
58955;BME280;45815;52.334;5.024;2023-02-24T02:08:29;101453.84;;;3.51;100.00
58955;BME280;45815;52.334;5.024;2023-02-24T02:10:59;101454.81;;;3.53;100.00
58955;BME280;45815;52.334;5.024;2023-02-24T02:13:27;101452.22;;;3.53;100.00
58955;BME280;45815;52.334;5.024;2023-02-24T02:16:19;101447.59;;;3.48;100.00
58955;BME280;45815;52.334;5.024;2023-02-24T02:22:00;101442.94;;;3.42;100.00
58955;BME280;45815;52.334;5.024;2023-02-24T02:30:28;101438.97;;;3.49;100.00
58955;BME280;45815;52.334;5.024;2023-02-24T02:36:21;101415.38;;;3.44;100.00
58955;BME280;45815;52.334;5.024;2023-02-24T02:39:09;101415.72;;;3.50;100.00
58955;BME280;45815;52.334;5.024;2023-02-24T02:44:12;101421.72;;;3.49;100.00
58955;BME280;45815;52.334;5.024;2023-02-24T02:46:43;101413.22;;;3.52;100.00
58955;BME280;45815;52.334;5.024;2023-02-24T02:49:37;101413.75;;;3.46;100.00
58955;BME280;45815;52.334;5.024;2023-02-24T02:52:10;101409.47;;;3.47;100.00
58955;BME280;45815;52.334;5.024;2023-02-24T02:54:50;101402.41;;;3.44;100.00
58955;BME280;45815;52.334;5.024;2023-02-24T02:57:29;101402.31;;;3.43;100.00
58955;BME280;45815;52.334;5.024;2023-02-24T03:00:20;101392.66;;;3.40;100.00
58955;BME280;45815;52.334;5.024;2023-02-24T03:03:02;101381.56;;;3.43;100.00
58955;BME280;45815;52.334;5.024;2023-02-24T03:05:37;101384.25;;;3.44;100.00
58955;BME280;45815;52.334;5.024;2023-02-24T03:08:12;101365.63;;;3.36;100.00
58955;BME280;45815;52.334;5.024;2023-02-24T03:10:40;101369.00;;;3.50;100.00
58955;BME280;45815;52.334;5.024;2023-02-24T03:13:10;101368.38;;;3.54;100.00
58955;BME280;45815;52.334;5.024;2023-02-24T03:15:38;101367.75;;;3.58;100.00
58955;BME280;45815;52.334;5.024;2023-02-24T03:18:15;101368.72;;;3.61;100.00
58955;BME280;45815;52.334;5.024;2023-02-24T03:20:56;101349.72;;;3.62;100.00
58955;BME280;45815;52.334;5.024;2023-02-24T03:23:25;101341.78;;;3.58;100.00
58955;BME280;45815;52.334;5.024;2023-02-24T03:26:41;101339.34;;;3.62;100.00
58955;BME280;45815;52.334;5.024;2023-02-24T03:29:18;101324.03;;;3.66;100.00
58955;BME280;45815;52.334;5.024;2023-02-24T03:37:12;101319.19;;;3.72;100.00
58955;BME280;45815;52.334;5.024;2023-02-24T03:39:38;101312.28;;;3.73;100.00
58955;BME280;45815;52.334;5.024;2023-02-24T03:42:16;101316.75;;;3.75;100.00
58955;BME280;45815;52.334;5.024;2023-02-24T03:44:43;101308.94;;;3.75;100.00
58955;BME280;45815;52.334;5.024;2023-02-24T03:47:10;101294.09;;;3.73;100.00
58955;BME280;45815;52.334;5.024;2023-02-24T03:49:37;101316.25;;;3.83;100.00
58955;BME280;45815;52.334;5.024;2023-02-24T03:57:58;101304.16;;;3.83;100.00
58955;BME280;45815;52.334;5.024;2023-02-24T04:00:57;101305.97;;;3.84;100.00
58955;BME280;45815;52.334;5.024;2023-02-24T04:09:00;101299.22;;;3.88;100.00
58955;BME280;45815;52.334;5.024;2023-02-24T04:11:47;101292.25;;;3.87;100.00
58955;BME280;45815;52.334;5.024;2023-02-24T04:14:28;101287.06;;;3.87;100.00
58955;BME280;45815;52.334;5.024;2023-02-24T04:17:01;101281.13;;;3.89;100.00
58955;BME280;45815;52.334;5.024;2023-02-24T04:19:33;101273.84;;;3.82;100.00
58955;BME280;45815;52.334;5.024;2023-02-24T04:22:05;101277.56;;;3.87;100.00
58955;BME280;45815;52.334;5.024;2023-02-24T04:24:36;101272.59;;;3.92;100.00
58955;BME280;45815;52.334;5.024;2023-02-24T04:27:04;101270.09;;;3.93;100.00
58955;BME280;45815;52.334;5.024;2023-02-24T04:29:38;101257.91;;;3.92;100.00
58955;BME280;45815;52.334;5.024;2023-02-24T04:32:08;101247.66;;;3.95;100.00
58955;BME280;45815;52.334;5.024;2023-02-24T04:34:38;101236.50;;;3.96;100.00
58955;BME280;45815;52.334;5.024;2023-02-24T04:37:04;101238.25;;;3.97;100.00
58955;BME280;45815;52.334;5.024;2023-02-24T04:39:31;101240.84;;;3.97;100.00
58955;BME280;45815;52.334;5.024;2023-02-24T04:41:58;101233.94;;;3.98;100.00
58955;BME280;45815;52.334;5.024;2023-02-24T04:44:26;101233.06;;;3.97;100.00
58955;BME280;45815;52.334;5.024;2023-02-24T04:46:52;101227.97;;;3.99;100.00
58955;BME280;45815;52.334;5.024;2023-02-24T04:49:19;101221.06;;;3.99;100.00
58955;BME280;45815;52.334;5.024;2023-02-24T04:51:44;101207.78;;;3.93;100.00
58955;BME280;45815;52.334;5.024;2023-02-24T04:54:15;101220.25;;;4.00;100.00
58955;BME280;45815;52.334;5.024;2023-02-24T04:56:48;101212.28;;;3.97;100.00
58955;BME280;45815;52.334;5.024;2023-02-24T04:59:18;101184.63;;;3.81;100.00
58955;BME280;45815;52.334;5.024;2023-02-24T05:01:45;101204.94;;;3.89;100.00
58955;BME280;45815;52.334;5.024;2023-02-24T05:04:12;101193.97;;;3.78;100.00
58955;BME280;45815;52.334;5.024;2023-02-24T05:06:39;101202.00;;;3.83;100.00
58955;BME280;45815;52.334;5.024;2023-02-24T05:09:09;101202.75;;;3.80;100.00
58955;BME280;45815;52.334;5.024;2023-02-24T05:11:46;101202.59;;;3.77;100.00
58955;BME280;45815;52.334;5.024;2023-02-24T05:14:13;101197.41;;;3.77;100.00
58955;BME280;45815;52.334;5.024;2023-02-24T05:16:40;101189.63;;;3.77;100.00
58955;BME280;45815;52.334;5.024;2023-02-24T05:19:08;101187.81;;;3.76;100.00
58955;BME280;45815;52.334;5.024;2023-02-24T05:21:51;101173.06;;;3.75;100.00
58955;BME280;45815;52.334;5.024;2023-02-24T05:24:17;101169.78;;;3.79;100.00
58955;BME280;45815;52.334;5.024;2023-02-24T05:26:43;101140.69;;;3.68;100.00
58955;BME280;45815;52.334;5.024;2023-02-24T05:29:09;101152.28;;;3.75;100.00
58955;BME280;45815;52.334;5.024;2023-02-24T05:31:35;101138.50;;;3.76;100.00
58955;BME280;45815;52.334;5.024;2023-02-24T05:34:04;101146.59;;;3.82;100.00
58955;BME280;45815;52.334;5.024;2023-02-24T05:36:33;101139.59;;;3.81;100.00
58955;BME280;45815;52.334;5.024;2023-02-24T05:38:59;101119.53;;;3.77;100.00
58955;BME280;45815;52.334;5.024;2023-02-24T05:41:33;101128.56;;;3.85;100.00
58955;BME280;45815;52.334;5.024;2023-02-24T05:44:08;101129.44;;;3.86;100.00
58955;BME280;45815;52.334;5.024;2023-02-24T05:46:38;101123.75;;;3.93;100.00
58955;BME280;45815;52.334;5.024;2023-02-24T05:49:18;101114.09;;;3.90;100.00
58955;BME280;45815;52.334;5.024;2023-02-24T05:51:51;101097.78;;;3.93;100.00
58955;BME280;45815;52.334;5.024;2023-02-24T05:54:38;101101.59;;;3.99;100.00
58955;BME280;45815;52.334;5.024;2023-02-24T05:57:12;101096.75;;;4.07;100.00
58955;BME280;45815;52.334;5.024;2023-02-24T05:59:40;101092.94;;;4.17;100.00
58955;BME280;45815;52.334;5.024;2023-02-24T06:02:08;101090.47;;;4.20;100.00
58955;BME280;45815;52.334;5.024;2023-02-24T06:04:37;101093.56;;;4.31;100.00
58955;BME280;45815;52.334;5.024;2023-02-24T06:07:15;101094.75;;;4.37;100.00
58955;BME280;45815;52.334;5.024;2023-02-24T06:09:44;101082.91;;;4.42;100.00
58955;BME280;45815;52.334;5.024;2023-02-24T06:12:10;101087.56;;;4.50;100.00
58955;BME280;45815;52.334;5.024;2023-02-24T06:14:38;101081.69;;;4.54;100.00
58955;BME280;45815;52.334;5.024;2023-02-24T06:17:04;101076.66;;;4.57;100.00
58955;BME280;45815;52.334;5.024;2023-02-24T06:19:29;101070.75;;;4.61;100.00
58955;BME280;45815;52.334;5.024;2023-02-24T06:21:57;101057.09;;;4.65;100.00
58955;BME280;45815;52.334;5.024;2023-02-24T06:24:27;101052.84;;;4.67;100.00
58955;BME280;45815;52.334;5.024;2023-02-24T06:26:54;101046.91;;;4.70;100.00
58955;BME280;45815;52.334;5.024;2023-02-24T06:29:28;101051.97;;;4.67;100.00
58955;BME280;45815;52.334;5.024;2023-02-24T06:31:55;101055.78;;;4.75;100.00
58955;BME280;45815;52.334;5.024;2023-02-24T06:34:22;101051.75;;;4.81;100.00
58955;BME280;45815;52.334;5.024;2023-02-24T06:36:50;101037.25;;;4.86;100.00
58955;BME280;45815;52.334;5.024;2023-02-24T06:39:17;101027.81;;;4.89;100.00
58955;BME280;45815;52.334;5.024;2023-02-24T06:41:42;101030.63;;;4.93;100.00
58955;BME280;45815;52.334;5.024;2023-02-24T06:44:08;101021.81;;;4.90;100.00
58955;BME280;45815;52.334;5.024;2023-02-24T06:46:34;101025.53;;;4.96;100.00
58955;BME280;45815;52.334;5.024;2023-02-24T06:48:59;101005.44;;;4.92;100.00
58955;BME280;45815;52.334;5.024;2023-02-24T06:51:25;101021.50;;;5.03;100.00
58955;BME280;45815;52.334;5.024;2023-02-24T06:53:58;101014.66;;;5.05;100.00
58955;BME280;45815;52.334;5.024;2023-02-24T06:56:24;101012.91;;;5.04;100.00
58955;BME280;45815;52.334;5.024;2023-02-24T06:58:53;101010.34;;;5.05;100.00
58955;BME280;45815;52.334;5.024;2023-02-24T07:01:24;101009.47;;;5.05;100.00
58955;BME280;45815;52.334;5.024;2023-02-24T07:03:52;101005.91;;;5.03;100.00
58955;BME280;45815;52.334;5.024;2023-02-24T07:06:27;101000.69;;;5.03;100.00
58955;BME280;45815;52.334;5.024;2023-02-24T07:08:54;100996.47;;;5.05;100.00
58955;BME280;45815;52.334;5.024;2023-02-24T07:11:21;101001.63;;;5.03;100.00
58955;BME280;45815;52.334;5.024;2023-02-24T07:13:47;100990.03;;;4.97;100.00
58955;BME280;45815;52.334;5.024;2023-02-24T07:16:19;100990.03;;;4.97;100.00
58955;BME280;45815;52.334;5.024;2023-02-24T07:18:45;100996.88;;;4.95;100.00
58955;BME280;45815;52.334;5.024;2023-02-24T07:21:15;100995.50;;;5.03;100.00
58955;BME280;45815;52.334;5.024;2023-02-24T07:23:44;100994.91;;;5.08;100.00
58955;BME280;45815;52.334;5.024;2023-02-24T07:26:12;100995.84;;;5.11;100.00
58955;BME280;45815;52.334;5.024;2023-02-24T07:28:38;100982.00;;;5.12;100.00
58955;BME280;45815;52.334;5.024;2023-02-24T07:31:06;100990.28;;;5.03;100.00
58955;BME280;45815;52.334;5.024;2023-02-24T07:33:36;100994.81;;;5.07;100.00
58955;BME280;45815;52.334;5.024;2023-02-24T07:36:07;100966.44;;;4.92;100.00
58955;BME280;45815;52.334;5.024;2023-02-24T07:38:36;100985.81;;;4.99;100.00
58955;BME280;45815;52.334;5.024;2023-02-24T07:41:03;100986.22;;;5.08;100.00
58955;BME280;45815;52.334;5.024;2023-02-24T07:43:33;100979.28;;;5.08;100.00
58955;BME280;45815;52.334;5.024;2023-02-24T07:46:10;100985.09;;;5.03;100.00
58955;BME280;45815;52.334;5.024;2023-02-24T07:48:37;100968.88;;;5.08;100.00
58955;BME280;45815;52.334;5.024;2023-02-24T07:51:08;100972.56;;;5.14;100.00
58955;BME280;45815;52.334;5.024;2023-02-24T07:53:35;100964.97;;;5.18;100.00
58955;BME280;45815;52.334;5.024;2023-02-24T07:56:08;100971.03;;;5.19;100.00
58955;BME280;45815;52.334;5.024;2023-02-24T07:58:47;100966.66;;;5.18;100.00
58955;BME280;45815;52.334;5.024;2023-02-24T08:01:18;100951.19;;;5.21;100.00
58955;BME280;45815;52.334;5.024;2023-02-24T08:03:54;100962.66;;;5.26;100.00
58955;BME280;45815;52.334;5.024;2023-02-24T08:06:24;100973.16;;;5.27;100.00
58955;BME280;45815;52.334;5.024;2023-02-24T08:09:13;100960.25;;;5.31;100.00
58955;BME280;45815;52.334;5.024;2023-02-24T08:11:54;100948.22;;;5.33;100.00
58955;BME280;45815;52.334;5.024;2023-02-24T08:14:25;100948.13;;;5.31;100.00
58955;BME280;45815;52.334;5.024;2023-02-24T08:16:55;100945.78;;;5.37;100.00
58955;BME280;45815;52.334;5.024;2023-02-24T08:19:24;100940.84;;;5.22;100.00
58955;BME280;45815;52.334;5.024;2023-02-24T08:21:53;100941.44;;;5.36;100.00
58955;BME280;45815;52.334;5.024;2023-02-24T08:24:20;100928.84;;;5.26;100.00
58955;BME280;45815;52.334;5.024;2023-02-24T08:26:52;100927.00;;;5.23;100.00
58955;BME280;45815;52.334;5.024;2023-02-24T08:29:30;100939.31;;;5.27;100.00
58955;BME280;45815;52.334;5.024;2023-02-24T08:32:08;100937.69;;;5.29;100.00
58955;BME280;45815;52.334;5.024;2023-02-24T08:34:35;100935.88;;;5.28;100.00
58955;BME280;45815;52.334;5.024;2023-02-24T08:37:03;100938.56;;;5.30;100.00
58955;BME280;45815;52.334;5.024;2023-02-24T08:39:29;100929.16;;;5.34;100.00
58955;BME280;45815;52.334;5.024;2023-02-24T08:41:58;100915.44;;;5.17;100.00
58955;BME280;45815;52.334;5.024;2023-02-24T08:44:23;100922.28;;;5.36;100.00
58955;BME280;45815;52.334;5.024;2023-02-24T08:46:53;100919.13;;;5.43;100.00
58955;BME280;45815;52.334;5.024;2023-02-24T08:49:19;100914.50;;;5.36;100.00
58955;BME280;45815;52.334;5.024;2023-02-24T08:51:46;100906.94;;;5.42;100.00
58955;BME280;45815;52.334;5.024;2023-02-24T08:54:19;100888.53;;;5.16;100.00
58955;BME280;45815;52.334;5.024;2023-02-24T08:56:52;100899.34;;;5.25;100.00
58955;BME280;45815;52.334;5.024;2023-02-24T08:59:22;100897.00;;;5.32;100.00
58955;BME280;45815;52.334;5.024;2023-02-24T09:02:12;100899.81;;;5.38;100.00
58955;BME280;45815;52.334;5.024;2023-02-24T09:04:53;100897.81;;;5.31;100.00
58955;BME280;45815;52.334;5.024;2023-02-24T09:07:31;100897.72;;;5.29;100.00
58955;BME280;45815;52.334;5.024;2023-02-24T09:10:19;100889.03;;;5.28;100.00
58955;BME280;45815;52.334;5.024;2023-02-24T09:12:45;100886.00;;;5.39;100.00
58955;BME280;45815;52.334;5.024;2023-02-24T09:15:14;100881.69;;;5.39;100.00
58955;BME280;45815;52.334;5.024;2023-02-24T09:17:42;100881.69;;;5.39;100.00
58955;BME280;45815;52.334;5.024;2023-02-24T09:20:22;100873.75;;;5.36;100.00
58955;BME280;45815;52.334;5.024;2023-02-24T09:23:06;100868.47;;;5.35;100.00
58955;BME280;45815;52.334;5.024;2023-02-24T09:25:35;100863.53;;;5.41;100.00
58955;BME280;45815;52.334;5.024;2023-02-24T09:33:36;100858.09;;;5.57;100.00
58955;BME280;45815;52.334;5.024;2023-02-24T09:36:06;100860.13;;;5.64;100.00
58955;BME280;45815;52.334;5.024;2023-02-24T09:38:35;100854.84;;;5.63;100.00
58955;BME280;45815;52.334;5.024;2023-02-24T09:41:48;100851.41;;;5.64;100.00
58955;BME280;45815;52.334;5.024;2023-02-24T09:47:26;100850.84;;;5.50;100.00
58955;BME280;45815;52.334;5.024;2023-02-24T09:52:45;100854.22;;;5.47;100.00
58955;BME280;45815;52.334;5.024;2023-02-24T09:55:35;100846.59;;;5.52;100.00
58955;BME280;45815;52.334;5.024;2023-02-24T10:07:16;100837.69;;;5.68;100.00
58955;BME280;45815;52.334;5.024;2023-02-24T10:09:49;100815.72;;;5.61;100.00
58955;BME280;45815;52.334;5.024;2023-02-24T10:12:31;100821.53;;;5.77;100.00
58955;BME280;45815;52.334;5.024;2023-02-24T10:15:14;100819.03;;;5.80;100.00
58955;BME280;45815;52.334;5.024;2023-02-24T10:17:56;100823.19;;;5.75;100.00
58955;BME280;45815;52.334;5.024;2023-02-24T10:20:24;100825.44;;;5.88;100.00
58955;BME280;45815;52.334;5.024;2023-02-24T10:25:50;100813.38;;;5.91;100.00
58955;BME280;45815;52.334;5.024;2023-02-24T10:28:38;100808.50;;;5.99;100.00
58955;BME280;45815;52.334;5.024;2023-02-24T10:31:22;100808.72;;;6.05;100.00
58955;BME280;45815;52.334;5.024;2023-02-24T10:34:14;100820.97;;;6.08;100.00
58955;BME280;45815;52.334;5.024;2023-02-24T10:36:49;100805.69;;;6.17;100.00
58955;BME280;45815;52.334;5.024;2023-02-24T10:39:18;100806.09;;;6.28;100.00
58955;BME280;45815;52.334;5.024;2023-02-24T10:41:59;100795.13;;;6.38;100.00
58955;BME280;45815;52.334;5.024;2023-02-24T10:44:42;100784.97;;;6.46;100.00
58955;BME280;45815;52.334;5.024;2023-02-24T10:47:18;100796.63;;;6.55;100.00
58955;BME280;45815;52.334;5.024;2023-02-24T10:49:49;100792.28;;;6.56;100.00
58955;BME280;45815;52.334;5.024;2023-02-24T10:52:38;100792.31;;;6.58;100.00
58955;BME280;45815;52.334;5.024;2023-02-24T10:55:30;100780.22;;;6.60;100.00
58955;BME280;45815;52.334;5.024;2023-02-24T11:00:55;100758.94;;;6.73;100.00
58955;BME280;45815;52.334;5.024;2023-02-24T11:03:58;100785.44;;;6.85;100.00
58955;BME280;45815;52.334;5.024;2023-02-24T11:06:47;100782.31;;;6.95;100.00
58955;BME280;45815;52.334;5.024;2023-02-24T11:09:24;100777.09;;;6.95;100.00
58955;BME280;45815;52.334;5.024;2023-02-24T11:11:55;100763.19;;;6.96;100.00
58955;BME280;45815;52.334;5.024;2023-02-24T11:14:52;100767.84;;;7.07;100.00
58955;BME280;45815;52.334;5.024;2023-02-24T11:17:53;100754.13;;;7.12;100.00
58955;BME280;45815;52.334;5.024;2023-02-24T11:20:28;100750.00;;;7.19;100.00
58955;BME280;45815;52.334;5.024;2023-02-24T11:22:54;100749.38;;;7.28;100.00
58955;BME280;45815;52.334;5.024;2023-02-24T11:25:36;100735.66;;;7.33;100.00
58955;BME280;45815;52.334;5.024;2023-02-24T11:28:15;100732.59;;;7.48;100.00
58955;BME280;45815;52.334;5.024;2023-02-24T11:30:53;100735.22;;;7.78;100.00
58955;BME280;45815;52.334;5.024;2023-02-24T11:33:37;100739.78;;;8.17;100.00
58955;BME280;45815;52.334;5.024;2023-02-24T11:38:51;100723.75;;;8.37;100.00
58955;BME280;45815;52.334;5.024;2023-02-24T11:41:28;100707.75;;;8.58;100.00
58955;BME280;45815;52.334;5.024;2023-02-24T11:44:09;100717.41;;;8.60;100.00
58955;BME280;45815;52.334;5.024;2023-02-24T11:46:51;100719.00;;;8.55;100.00
58955;BME280;45815;52.334;5.024;2023-02-24T11:49:41;100714.81;;;8.62;100.00
58955;BME280;45815;52.334;5.024;2023-02-24T11:52:19;100708.66;;;8.60;100.00
58955;BME280;45815;52.334;5.024;2023-02-24T11:54:51;100706.50;;;8.78;100.00
58955;BME280;45815;52.334;5.024;2023-02-24T11:57:31;100704.06;;;8.86;100.00
58955;BME280;45815;52.334;5.024;2023-02-24T12:10:28;100687.72;;;8.96;100.00
58955;BME280;45815;52.334;5.024;2023-02-24T12:13:16;100682.13;;;9.61;100.00
58955;BME280;45815;52.334;5.024;2023-02-24T12:15:54;100683.75;;;9.55;100.00
58955;BME280;45815;52.334;5.024;2023-02-24T12:18:46;100680.69;;;9.76;100.00
58955;BME280;45815;52.334;5.024;2023-02-24T12:21:23;100669.13;;;9.66;100.00
58955;BME280;45815;52.334;5.024;2023-02-24T12:23:55;100669.53;;;9.87;100.00
58955;BME280;45815;52.334;5.024;2023-02-24T12:29:15;100650.91;;;10.19;100.00
58955;BME280;45815;52.334;5.024;2023-02-24T12:51:07;100638.34;;;10.00;100.00
58955;BME280;45815;52.334;5.024;2023-02-24T12:59:03;100642.63;;;9.50;100.00
58955;BME280;45815;52.334;5.024;2023-02-24T13:01:41;100656.22;;;9.33;100.00
58955;BME280;45815;52.334;5.024;2023-02-24T13:04:42;100644.72;;;8.49;100.00
58955;BME280;45815;52.334;5.024;2023-02-24T13:07:20;100630.25;;;8.28;100.00
58955;BME280;45815;52.334;5.024;2023-02-24T13:13:03;100646.25;;;8.07;100.00
58955;BME280;45815;52.334;5.024;2023-02-24T13:15:33;100625.91;;;7.95;100.00
58955;BME280;45815;52.334;5.024;2023-02-24T13:17:58;100625.34;;;8.07;100.00
58955;BME280;45815;52.334;5.024;2023-02-24T13:22:56;100612.72;;;7.91;100.00
58955;BME280;45815;52.334;5.024;2023-02-24T13:25:32;100622.38;;;7.93;100.00
58955;BME280;45815;52.334;5.024;2023-02-24T13:28:02;100628.88;;;8.09;100.00
58955;BME280;45815;52.334;5.024;2023-02-24T13:30:35;100623.06;;;8.19;100.00
58955;BME280;45815;52.334;5.024;2023-02-24T13:33:20;100630.97;;;8.22;100.00
58955;BME280;45815;52.334;5.024;2023-02-24T13:35:50;100628.56;;;8.65;100.00
58955;BME280;45815;52.334;5.024;2023-02-24T13:44:01;100626.56;;;8.20;100.00
58955;BME280;45815;52.334;5.024;2023-02-24T13:46:32;100626.69;;;8.26;100.00
58955;BME280;45815;52.334;5.024;2023-02-24T13:49:17;100612.69;;;8.24;100.00
58955;BME280;45815;52.334;5.024;2023-02-24T13:51:57;100619.47;;;8.16;100.00
58955;BME280;45815;52.334;5.024;2023-02-24T13:54:51;100635.81;;;8.07;100.00
58955;BME280;45815;52.334;5.024;2023-02-24T14:02:44;100621.94;;;8.10;100.00
58955;BME280;45815;52.334;5.024;2023-02-24T14:05:21;100611.91;;;8.27;100.00
58955;BME280;45815;52.334;5.024;2023-02-24T14:07:49;100612.22;;;8.39;100.00
58955;BME280;45815;52.334;5.024;2023-02-24T14:10:26;100607.66;;;8.66;100.00
58955;BME280;45815;52.334;5.024;2023-02-24T14:13:15;100620.69;;;8.65;100.00
58955;BME280;45815;52.334;5.024;2023-02-24T14:15:43;100621.72;;;8.72;100.00
58955;BME280;45815;52.334;5.024;2023-02-24T14:18:19;100606.47;;;8.54;100.00
58955;BME280;45815;52.334;5.024;2023-02-24T14:20:44;100617.00;;;8.57;100.00
58955;BME280;45815;52.334;5.024;2023-02-24T14:23:24;100608.59;;;8.70;100.00
58955;BME280;45815;52.334;5.024;2023-02-24T14:25:57;100612.16;;;8.72;100.00
58955;BME280;45815;52.334;5.024;2023-02-24T14:28:28;100614.66;;;8.68;100.00
58955;BME280;45815;52.334;5.024;2023-02-24T14:30:59;100603.34;;;8.69;100.00
58955;BME280;45815;52.334;5.024;2023-02-24T14:33:31;100598.25;;;8.75;100.00
58955;BME280;45815;52.334;5.024;2023-02-24T14:36:01;100602.28;;;8.60;100.00
58955;BME280;45815;52.334;5.024;2023-02-24T14:38:34;100612.38;;;8.45;100.00
58955;BME280;45815;52.334;5.024;2023-02-24T14:41:01;100623.97;;;8.21;100.00
58955;BME280;45815;52.334;5.024;2023-02-24T14:43:27;100604.72;;;8.18;100.00
58955;BME280;45815;52.334;5.024;2023-02-24T14:45:56;100587.41;;;8.23;100.00
58955;BME280;45815;52.334;5.024;2023-02-24T14:48:25;100608.75;;;8.40;100.00
58955;BME280;45815;52.334;5.024;2023-02-24T14:50:56;100612.31;;;8.42;100.00
58955;BME280;45815;52.334;5.024;2023-02-24T14:53:26;100621.00;;;8.41;100.00
58955;BME280;45815;52.334;5.024;2023-02-24T14:55:55;100611.22;;;8.35;100.00
58955;BME280;45815;52.334;5.024;2023-02-24T14:58:52;100615.44;;;7.94;100.00
58955;BME280;45815;52.334;5.024;2023-02-24T15:01:38;100614.41;;;7.89;100.00
58955;BME280;45815;52.334;5.024;2023-02-24T15:04:12;100606.63;;;7.90;100.00
58955;BME280;45815;52.334;5.024;2023-02-24T15:06:41;100608.88;;;7.76;100.00
58955;BME280;45815;52.334;5.024;2023-02-24T15:09:28;100605.81;;;7.93;100.00
58955;BME280;45815;52.334;5.024;2023-02-24T15:11:57;100602.63;;;8.03;100.00
58955;BME280;45815;52.334;5.024;2023-02-24T15:14:28;100598.44;;;8.11;100.00
58955;BME280;45815;52.334;5.024;2023-02-24T15:17:02;100603.41;;;8.00;100.00